METAR Data
IDs: Format: Raw Decoded Include TAF

Data at: 2114 UTC 01 Dec 2021

KSNY 012053Z AUTO 31016G25KT 10SM CLR 22/M02 A3002 RMK AO2 SLP148 T02171017 56016